Latest Weather Observations for Albury

IDN60801

Issued at 12:02 am EST Friday 26 May 2017 (issued every 30 minutes, with the page automatically refreshed every 10 minutes)

About weather observations | Map of weather stations | Latest weather observations for NSW | Other Formats
Station Details ID: 072160 Name: ALBURY AIRPORT AWS Lat: -36.07 Lon: 146.95 Height: 163.5 m
Data from the previous 72 hours. | See also: Recent months at Albury
Date/Time
EST
Temp
°C
App
Temp
°C
Dew
Point
°C
Rel
Hum
%
Delta-T
°C
Wind Press
QNH
hPa
Press
MSL
hPa
Rain since
9am
mm
Dir  Spd
km/h
Gust
km/h
Spd
kts
Gust
kts
26/12:00am 10.9 11.1 10.7 99 0.1 CALM 0 0 0 0 1022.6 1022.7 0.0
 
Date/Time
EST
Temp
°C
App
Temp
°C
Dew
Point
°C
Rel
Hum
%
Delta-T
°C
Wind Press
QNH
hPa
Press
MSL
hPa
Rain since
9am
mm
Dir  Spd
km/h
Gust
km/h
Spd
kts
Gust
kts
25/11:30pm 10.8 11.0 10.5 98 0.2 CALM 0 0 0 0 1022.6 1022.7 0.0
25/11:00pm 10.8 9.7 10.6 99 0.1 NNE 7 11 4 6 1022.5 1022.6 0.0
25/10:30pm 10.8 11.0 10.5 98 0.2 CALM 0 0 0 0 1022.6 1022.7 0.0
25/10:00pm 10.5 10.6 10.0 97 0.3 CALM 0 0 0 0 1022.6 1022.7 0.0
25/09:30pm 10.7 9.7 10.4 98 0.2 S 6 7 3 4 1022.5 1022.6 0.0
25/09:00pm 10.3 9.0 9.2 93 0.5 ENE 6 7 3 4 1022.5 1022.6 0.0
25/08:30pm 11.4 11.5 10.1 92 0.7 CALM 0 0 0 0 1022.6 1022.7 0.0
25/08:00pm 11.4 11.5 10.0 91 0.7 CALM 0 7 0 4 1022.5 1022.6 0.0
25/07:30pm 11.6 10.6 10.2 91 0.7 NNE 6 9 3 5 1022.4 1022.5 0.0
25/07:00pm 12.0 12.0 9.7 86 1.2 CALM 0 0 0 0 1022.5 1022.6 0.0
25/06:30pm 12.2 11.1 9.9 86 1.2 NE 6 7 3 4 1022.4 1022.5 0.0
25/06:00pm 12.4 11.3 9.8 84 1.3 N 6 7 3 4 1022.3 1022.3 0.0
25/05:30pm 12.3 12.3 9.9 85 1.2 CALM 0 0 0 0 1022.0 1022.1 0.0
25/05:00pm 12.5 12.4 9.5 82 1.5 CALM 0 0 0 0 1022.0 1022.1 0.0
25/04:30pm 12.6 11.2 9.6 82 1.5 WNW 7 11 4 6 1022.2 1022.2 0.0
25/04:00pm 12.6 10.8 9.6 82 1.5 W 9 13 5 7 1022.2 1022.2 0.0
25/03:49pm 12.7 11.4 10.1 84 1.3 WNW 7 11 4 6 1022.2 1022.2 0.0
25/03:30pm 12.4 9.5 9.8 84 1.3 WNW 15 19 8 10 1022.0 1022.1 0.0
25/03:18pm 12.8 10.3 9.8 82 1.5 W 13 20 7 11 1022.0 1022.1 0.0
25/03:00pm 13.5 11.3 9.4 76 2.1 NW 11 15 6 8 1021.9 1022.0 0.0
25/02:30pm 13.5 11.3 9.4 76 2.1 W 11 17 6 9 1021.9 1022.0 0.0
25/02:17pm 13.3 10.6 9.0 75 2.2 WNW 13 17 7 9 1022.0 1022.1 0.0
25/02:00pm 13.4 11.6 9.3 76 2.1 W 9 13 5 7 1022.2 1022.2 0.0
25/01:50pm 13.5 12.1 9.4 76 2.1 W 7 11 4 6 1022.3 1022.3 0.0
25/01:30pm 13.4 12.2 9.5 77 2.0 NW 6 9 3 5 1022.4 1022.5 0.0
25/01:23pm 13.0 12.1 9.1 77 2.0 NW 4 9 2 5 1022.5 1022.6 0.0
25/01:00pm 12.5 11.6 9.1 80 1.7 N 4 7 2 4 1022.7 1022.8 0.0
25/12:54pm 12.5 12.0 9.3 81 1.6 NNW 2 7 1 4 1022.8 1022.9 0.0
25/12:30pm 12.5 12.4 9.5 82 1.5 CALM 0 0 0 0 1022.9 1023.0 0.0
25/12:00pm 11.9 11.8 9.3 84 1.3 CALM 0 0 0 0 1023.3 1023.4 0.0
25/11:30am 11.3 11.1 9.2 87 1.1 CALM 0 7 0 4 1023.7 1023.8 0.0
25/11:27am 11.3 11.2 9.4 88 1.0 CALM 0 0 0 0 1023.7 1023.8 0.0
25/11:00am 11.1 10.5 10.3 95 0.4 SE 4 7 2 4 1023.8 1023.9 0.0
25/10:30am 10.6 10.8 10.6 100 0.0 CALM 0 0 0 0 1024.0 1024.1 0.0
25/10:00am 9.8 9.8 9.8 100 0.0 CALM 0 0 0 0 1023.8 1023.9 0.0
25/09:38am 9.5 9.4 9.5 100 0.0 CALM 0 0 0 0 1023.7 1023.8 0.0
25/09:30am 9.3 9.2 9.3 100 0.0 CALM 0 0 0 0 1023.6 1023.7 0.0
25/09:00am 8.8 8.5 8.8 100 0.0 CALM 0 0 0 0 1023.5 1023.6 0.2
25/08:30am 8.3 7.9 8.3 100 0.0 CALM 0 0 0 0 1023.4 1023.5 0.2
25/08:00am 7.9 7.4 7.9 100 0.0 CALM 0 0 0 0 1023.1 1023.2 0.2
25/07:30am 7.6 6.7 7.6 100 0.0 NE 2 6 1 3 1022.9 1023.0 0.2
25/07:00am 7.5 6.9 7.5 100 0.0 CALM 0 0 0 0 1022.7 1022.8 0.2
25/06:30am 7.2 6.6 7.2 100 0.0 CALM 0 0 0 0 1022.5 1022.6 0.2
25/06:00am 6.8 4.9 6.8 100 0.0 NNE 6 7 3 4 1021.9 1022.0 0.2
25/05:30am 6.3 5.5 6.3 100 0.0 CALM 0 0 0 0 1021.7 1021.8 0.2
25/05:00am 6.0 5.1 6.0 100 0.0 CALM 0 0 0 0 1021.6 1021.7 0.2
25/04:30am 5.4 4.4 5.4 100 0.0 CALM 0 0 0 0 1021.1 1021.2 0.2
25/04:00am 4.6 3.4 4.6 100 0.0 CALM 0 0 0 0 1021.0 1021.1 0.2
25/03:30am 5.1 4.0 5.1 100 0.0 CALM 0 0 0 0 1020.9 1021.0 0.2
25/03:19am 5.1 4.0 5.1 100 0.0 CALM 0 0 0 0 1021.0 1021.1 0.2
25/03:03am 5.0 3.9 5.0 100 0.0 CALM 0 0 0 0 1021.0 1021.1 0.2
25/03:00am 5.4 4.4 5.4 100 0.0 CALM 0 0 0 0 1021.0 1021.1 0.2
25/02:51am 5.6 4.6 5.6 100 0.0 CALM 0 0 0 0 1021.0 1021.1 0.2
25/02:46am 5.3 4.2 5.3 100 0.0 CALM 0 0 0 0 1021.0 1021.1 0.2
25/02:30am 5.8 4.8 5.8 100 0.0 CALM 0 0 0 0 1021.1 1021.2 0.2
25/02:23am 5.2 4.1 5.2 100 0.0 CALM 0 0 0 0 1021.1 1021.2 0.2
25/02:01am 5.8 4.8 5.7 99 0.0 CALM 0 0 0 0 1021.0 1021.1 0.2
25/02:00am 5.8 4.8 5.7 99 0.0 CALM 0 0 0 0 1021.1 1021.2 0.2
25/01:30am 6.3 5.5 6.3 100 0.0 CALM 0 0 0 0 1021.1 1021.2 0.2
25/01:00am 7.0 5.9 7.0 100 0.0 N 2 6 1 3 1021.1 1021.2 0.2
25/12:30am 7.0 5.2 7.0 100 0.0 WNW 6 11 3 6 1021.2 1021.3 0.2
25/12:23am 7.4 6.8 7.4 100 0.0 CALM 0 0 0 0 1021.1 1021.2 0.2
25/12:00am 7.2 6.5 7.1 99 0.0 CALM 0 0 0 0 1021.1 1021.2 0.2
 
Date/Time
EST
Temp
°C
App
Temp
°C
Dew
Point
°C
Rel
Hum
%
Delta-T
°C
Wind Press
QNH
hPa
Press
MSL
hPa
Rain since
9am
mm
Dir  Spd
km/h
Gust
km/h
Spd
kts
Gust
kts
24/11:45pm 6.6 4.4 6.3 98 0.1 NNE 7 9 4 5 1021.1 1021.2 0.2
24/11:30pm 7.3 5.3 7.0 98 0.1 E 7 7 4 4 1021.0 1021.1 0.2
24/11:00pm 8.2 7.6 7.6 96 0.3 CALM 0 0 0 0 1021.0 1021.1 0.2
24/10:30pm 9.0 7.9 8.6 97 0.2 SSE 4 7 2 4 1021.0 1021.1 0.2
24/10:00pm 9.5 9.1 8.3 92 0.6 CALM 0 0 0 0 1020.8 1020.9 0.2
24/09:30pm 10.0 9.0 8.8 92 0.6 ESE 4 7 2 4 1020.8 1020.9 0.2
24/09:00pm 9.8 8.8 8.7 93 0.5 N 4 7 2 4 1020.5 1020.6 0.2
24/08:30pm 9.8 9.5 8.7 93 0.5 CALM 0 4 0 2 1020.4 1020.5 0.2
24/08:00pm 9.2 7.4 8.1 93 0.5 ENE 7 9 4 5 1020.2 1020.3 0.2
24/07:30pm 8.7 6.7 7.2 90 0.7 W 7 7 4 4 1020.0 1020.1 0.2
24/07:00pm 9.9 9.1 8.2 89 0.8 NW 2 6 1 3 1019.8 1019.9 0.2
24/06:30pm 10.2 7.7 8.1 87 1.0 NW 11 13 6 7 1019.5 1019.6 0.2
24/06:00pm 10.5 8.4 8.1 85 1.2 NW 9 13 5 7 1019.4 1019.5 0.2
24/05:30pm 11.0 8.5 8.1 82 1.4 NW 11 13 6 7 1018.9 1019.0 0.2
24/05:00pm 12.1 10.4 8.2 77 1.9 W 7 13 4 7 1018.4 1018.5 0.2
24/04:30pm 13.2 10.6 9.3 77 2.0 WNW 13 19 7 10 1018.2 1018.3 0.2
24/04:00pm 13.2 9.3 9.3 77 2.0 WNW 20 28 11 15 1018.0 1018.1 0.2
24/03:30pm 13.8 10.1 9.3 74 2.3 WNW 19 28 10 15 1017.8 1017.9 0.2
24/03:00pm 13.9 10.1 8.9 72 2.5 W 19 24 10 13 1017.4 1017.5 0.2
24/02:30pm 14.2 10.0 9.8 75 2.3 WNW 22 28 12 15 1017.3 1017.4 0.2
24/02:00pm 14.5 9.9 9.7 73 2.5 WNW 24 32 13 17 1017.2 1017.3 0.2
24/01:30pm 15.1 10.8 9.5 69 2.9 WNW 22 32 12 17 1016.8 1016.8 0.0
24/01:00pm 15.0 11.2 9.8 71 2.7 WNW 20 32 11 17 1016.8 1016.8 0.0
24/12:30pm 14.6 10.6 10.4 76 2.2 W 22 32 12 17 1017.1 1017.1 0.0
24/12:10pm 13.9 9.2 9.3 74 2.4 W 24 30 13 16 1017.4 1017.5 0.0
24/12:00pm 14.7 10.9 9.9 73 2.5 W 20 28 11 15 1017.6 1017.7 0.0
24/11:30am 14.1 10.3 9.7 75 2.3 WNW 20 28 11 15 1017.5 1017.6 0.0
24/11:24am 14.2 10.4 9.8 75 2.3 WNW 20 28 11 15 1017.6 1017.7 0.0
24/11:00am 14.0 10.4 10.0 77 2.1 W 19 26 10 14 1017.7 1017.8 0.0
24/10:30am 13.5 9.8 10.3 81 1.7 W 20 26 11 14 1017.8 1017.9 0.0
24/10:08am 12.9 9.6 9.7 81 1.6 W 17 24 9 13 1017.8 1017.9 0.0
24/10:00am 12.6 9.0 9.8 83 1.4 W 19 26 10 14 1017.7 1017.8 0.0
24/09:49am 12.5 8.9 9.9 84 1.3 W 19 28 10 15 1017.6 1017.7 0.0
24/09:30am 12.6 8.4 9.8 83 1.4 W 22 30 12 16 1017.5 1017.6 0.0
24/09:00am 12.5 8.9 9.9 84 1.3 WNW 19 24 10 13 1017.1 1017.1 6.2
24/08:30am 11.7 7.8 9.6 87 1.1 W 20 28 11 15 1016.8 1016.8 6.2
24/08:00am 11.6 8.5 10.3 92 0.7 WNW 17 20 9 11 1016.4 1016.4 6.2
24/07:30am 11.4 8.4 10.5 94 0.5 W 17 20 9 11 1016.1 1016.1 6.2
24/07:00am 11.7 8.7 10.8 94 0.5 WNW 17 24 9 13 1015.6 1015.7 6.2
24/06:30am 11.6 9.8 11.0 96 0.3 WNW 11 15 6 8 1015.1 1015.2 6.2
24/06:00am 12.0 10.4 11.4 96 0.3 WNW 11 19 6 10 1014.9 1015.0 6.2
24/05:30am 12.3 10.3 11.5 95 0.4 WNW 13 17 7 9 1014.6 1014.7 6.2
24/05:14am 12.6 11.0 11.7 94 0.5 WNW 11 17 6 9 1014.4 1014.5 6.2
24/05:00am 13.1 10.8 11.8 92 0.7 WNW 15 20 8 11 1014.2 1014.3 6.2
24/04:30am 12.9 10.5 11.5 91 0.7 WNW 15 22 8 12 1014.0 1014.1 6.2
24/04:02am 13.4 10.8 12.1 92 0.7 WNW 17 24 9 13 1014.0 1014.1 6.2
24/04:00am 13.5 11.0 12.2 92 0.7 WNW 17 24 9 13 1014.0 1014.1 6.2
24/03:35am 13.5 10.4 12.2 92 0.7 NW 20 28 11 15 1013.9 1014.0 6.2
24/03:30am 13.6 11.0 13.1 97 0.3 NW 19 32 10 17 1013.9 1014.0 6.2
24/03:00am 12.7 12.8 12.7 100 0.0 S 4 7 2 4 1014.1 1014.2 4.2
24/02:30am 12.8 13.7 12.8 100 0.0 CALM 0 0 0 0 1014.3 1014.4 4.2
24/02:00am 12.9 13.1 12.9 100 0.0 ESE 4 9 2 5 1014.2 1014.3 3.8
24/01:52am 12.7 13.5 12.7 100 0.0 CALM 0 6 0 3 1014.4 1014.5 3.8
24/01:30am 12.7 12.8 12.7 100 0.0 SSE 4 7 2 4 1014.2 1014.3 3.4
24/01:00am 13.0 13.9 13.0 100 0.0 CALM 0 0 0 0 1015.0 1015.1 2.8
24/12:57am 12.9 13.8 12.9 100 0.0 CALM 0 0 0 0 1015.2 1015.3 2.6
24/12:30am 12.8 12.5 12.8 100 0.0 WSW 6 7 3 4 1015.3 1015.4 1.6
24/12:13am 12.7 13.2 12.7 100 0.0 W 2 7 1 4 1015.5 1015.6 1.6
24/12:00am 12.7 12.4 12.7 100 0.0 W 6 7 3 4 1015.5 1015.6 1.6
 
Date/Time
EST
Temp
°C
App
Temp
°C
Dew
Point
°C
Rel
Hum
%
Delta-T
°C
Wind Press
QNH
hPa
Press
MSL
hPa
Rain since
9am
mm
Dir  Spd
km/h
Gust
km/h
Spd
kts
Gust
kts
23/11:46pm 13.0 12.6 13.0 100 0.0 NNE 7 11 4 6 1015.6 1015.7 1.6
23/11:30pm 12.7 13.1 12.5 99 0.1 NNE 2 7 1 4 1015.6 1015.7 1.4
23/11:15pm 12.6 12.6 12.4 99 0.1 NE 4 9 2 5 1016.0 1016.0 1.0
23/11:00pm 12.7 11.7 12.4 98 0.2 SSE 9 11 5 6 1015.9 1015.9 0.4
23/10:30pm 12.8 12.3 11.9 94 0.5 ESE 6 7 3 4 1016.1 1016.1 0.0
23/10:00pm 13.1 13.8 12.3 95 0.4 CALM 0 0 0 0 1016.5 1016.5 0.0
23/09:30pm 12.6 13.1 11.7 94 0.5 CALM 0 0 0 0 1016.6 1016.6 0.0
23/09:00pm 12.7 13.2 11.6 93 0.6 CALM 0 0 0 0 1016.6 1016.6 0.0
23/08:30pm 12.2 12.5 10.9 92 0.7 CALM 0 0 0 0 1016.6 1016.6 0.0
23/08:00pm 12.8 13.3 11.7 93 0.6 CALM 0 0 0 0 1016.7 1016.7 0.0
23/07:30pm 12.1 12.4 11.0 93 0.6 CALM 0 0 0 0 1016.6 1016.6 0.0
23/07:00pm 12.3 12.6 11.0 92 0.7 CALM 0 0 0 0 1016.4 1016.4 0.0
23/06:30pm 13.2 12.9 11.6 90 0.9 E 4 9 2 5 1016.1 1016.1 0.0
23/06:00pm 14.3 13.2 11.8 85 1.4 ESE 9 9 5 5 1016.1 1016.1 0.0
23/05:30pm 15.4 15.2 11.8 79 2.0 E 4 6 2 3 1016.2 1016.2 0.0
23/05:00pm 16.5 16.0 11.9 74 2.5 E 6 9 3 5 1016.2 1016.2 0.0
23/04:30pm 17.5 16.4 12.0 70 3.0 ESE 9 13 5 7 1016.0 1016.0 0.0
23/04:00pm 17.9 16.7 11.5 66 3.5 NE 9 13 5 7 1016.1 1016.1 0.0
23/03:30pm 17.3 15.7 12.8 75 2.5 ESE 13 17 7 9 1016.0 1016.0 0.0
23/03:00pm 18.0 16.8 12.7 71 3.0 ESE 11 15 6 8 1016.6 1016.6 0.0
23/02:30pm 18.2 17.1 13.1 72 2.9 ESE 11 13 6 7 1016.8 1016.8 0.0
23/02:00pm 18.1 16.4 12.5 70 3.1 ENE 13 15 7 8 1017.2 1017.3 0.0
23/01:30pm 18.5 18.1 13.1 71 3.1 NE 7 13 4 7 1017.7 1017.8 0.0
23/01:00pm 17.8 15.7 12.5 71 3.0 NE 15 19 8 10 1018.0 1018.1 0.0
23/12:30pm 16.6 15.1 12.0 74 2.5 E 11 17 6 9 1018.4 1018.5 0.0
23/12:00pm 15.1 13.3 10.7 75 2.3 E 11 15 6 8 1019.2 1019.3 0.0
23/11:30am 14.1 13.0 10.5 79 1.9 SE 7 9 4 5 1020.3 1020.4 0.0
23/11:00am 13.5 11.4 9.7 78 2.0 ESE 11 13 6 7 1020.4 1020.5 0.0
23/10:30am 13.3 12.2 9.9 80 1.8 ESE 6 7 3 4 1020.7 1020.8 0.0
23/10:00am 11.9 10.6 9.3 84 1.3 WSW 6 7 3 4 1021.1 1021.2 0.0
23/09:30am 10.6 9.6 9.0 90 0.8 SE 4 7 2 4 1020.8 1020.9 0.0
23/09:00am 9.9 9.9 9.9 100 0.0 CALM 0 0 0 0 1021.1 1021.2 0.0
23/08:30am 8.7 7.3 8.7 100 0.0 WSW 6 9 3 5 1021.4 1021.5 0.0
23/08:00am 8.1 6.0 8.1 100 0.0 ESE 9 15 5 8 1021.2 1021.3 0.0
23/07:30am 7.1 6.4 7.1 100 0.0 CALM 0 0 0 0 1021.6 1021.7 0.0
23/07:00am 6.7 4.8 6.7 100 0.0 ENE 6 9 3 5 1021.4 1021.5 0.0
23/06:30am 6.9 6.2 6.9 100 0.0 CALM 0 0 0 0 1021.4 1021.5 0.0
23/06:00am 7.2 5.4 7.2 100 0.0 NW 6 7 3 4 1021.2 1021.3 0.0
23/05:30am 5.5 4.1 5.5 100 0.0 NNW 2 7 1 4 1021.2 1021.3 0.0
23/05:00am 5.8 4.1 5.8 100 0.0 ENE 4 9 2 5 1021.0 1021.1 0.0
23/04:30am 6.8 4.4 6.8 100 0.0 NW 9 22 5 12 1020.6 1020.7 0.0
23/04:00am 5.1 2.9 5.1 100 0.0 ENE 6 7 3 4 1019.7 1019.8 0.0
23/03:41am 5.5 4.5 5.5 100 0.0 CALM 0 0 0 0 1019.9 1020.0 0.0
23/03:30am 5.7 4.7 5.7 100 0.0 CALM 0 0 0 0 1020.0 1020.1 0.0
23/03:00am 5.5 4.5 5.5 100 0.0 CALM 0 0 0 0 1020.1 1020.2 0.0
23/02:46am 5.9 5.0 5.9 100 0.0 CALM 0 0 0 0 1020.3 1020.4 0.0
23/02:30am 5.8 4.1 5.8 100 0.0 NE 4 7 2 4 1020.4 1020.5 0.0
23/02:00am 6.2 5.3 6.2 100 0.0 CALM 0 0 0 0 1020.7 1020.8 0.0
23/01:30am 6.4 5.6 6.4 100 0.0 CALM 0 0 0 0 1020.9 1021.0 0.0
23/01:00am 6.5 4.0 6.5 100 0.0 ENE 9 13 5 7 1021.1 1021.2 0.0
23/12:30am 6.7 4.6 6.7 100 0.0 NNE 7 9 4 5 1021.6 1021.7 0.0
23/12:19am 7.0 5.2 7.0 100 0.0 W 6 9 3 5 1021.8 1021.9 0.0

Other Formats:

Comma delimited format used in spreadsheet applications
http://www.bom.gov.au/fwo/IDN60801/IDN60801.95896.axf

JavaScript Object Notation format (JSON) in row-major order
http://www.bom.gov.au/fwo/IDN60801/IDN60801.95896.json